Menu Close Menu
Station Historical Data
Daily Summary for June 24, 2017 Units:  Metric    English   Both
« Previous Day
Next Day »
Daily Weekly Monthly Yearly Custom
  High: Low: Average:
Temperature: 28.1 °C 21.7 °C 23.9 °C
Dew Point: 24 °C 20.5 °C 21.9 °C
Humidity: 94% 75% 89%
Wind Speed: 0km/h 0km/h 0km/h
Wind Gust: 9.7km/h - -
Wind- -
Pressure: 1018.5 hPa 1013.4 hPa -
Precipitation: 1.52 mm    
Historical Graphs
 
 
Tabular Data for June 24, 2017
Time Temperature Dew Point Pressure Wind Wind Speed Wind Gust Humidity Rainfall Rate (Hourly) solar Conditions
00:00 22.1 °C 20.9 °C 1014.1 hPa Calm     93% 0 mm WeatherDisplay:10.37 W/m2 RA
00:10 22.1 °C 20.9 °C 1014.1 hPa Calm     93% 0 mm WeatherDisplay:10.37 W/m2 OVC
00:20 22.1 °C 20.9 °C 1014.1 hPa Calm     93% 0 mm WeatherDisplay:10.37 W/m2 BKN
00:30 22.1 °C 20.9 °C 1014.1 hPa Calm     93% 0.25 mm WeatherDisplay:10.37 W/m2 BKN
00:40 22.1 °C 21.1 °C 1014.1 hPa Calm     94% 0 mm WeatherDisplay:10.37 W/m2 BKN
00:50 22.1 °C 21.1 °C 1014.1 hPa Calm     94% 0 mm WeatherDisplay:10.37 W/m2 BKN
01:00 22.1 °C 21.1 °C 1014.1 hPa Calm     94% 0 mm WeatherDisplay:10.37 W/m2 FEW
01:10 22.1 °C 21.1 °C 1014.1 hPa Calm     94% 0 mm WeatherDisplay:10.37 W/m2 FEW
01:20 22.1 °C 21 °C 1014.1 hPa Calm   1.6 km/h 94% 0 mm WeatherDisplay:10.37 W/m2 SCT
01:30 22 °C 21 °C 1013.8 hPa Calm     94% 0.25 mm WeatherDisplay:10.37 W/m2 OVC
01:40 21.7 °C 20.5 °C 1013.8 hPa Calm     93% 0 mm WeatherDisplay:10.37 W/m2 OVC
01:50 21.8 °C 20.6 °C 1013.8 hPa Calm     93% 0 mm WeatherDisplay:10.37 W/m2 BKN
02:00 21.8 °C 20.6 °C 1013.8 hPa Calm     93% 0 mm WeatherDisplay:10.37 W/m2 -RA
02:10 21.8 °C 20.6 °C 1013.8 hPa Calm   1.6 km/h 93% 0 mm WeatherDisplay:10.37 W/m2 -RA
02:20 21.8 °C 20.6 °C 1014.1 hPa Calm     93% 0 mm WeatherDisplay:10.37 W/m2 BKN
02:30 21.8 °C 20.6 °C 1014.1 hPa Calm     93% 0 mm WeatherDisplay:10.37 W/m2 BKN
02:40 21.8 °C 20.6 °C 1014.1 hPa Calm     93% 0 mm WeatherDisplay:10.37 W/m2 BKN
02:50 21.8 °C 20.6 °C 1013.8 hPa Calm     93% 0 mm WeatherDisplay:10.37 W/m2 BKN
03:00 21.8 °C 20.6 °C 1013.8 hPa Calm     93% 0 mm WeatherDisplay:10.37 W/m2 BKN
03:20 21.8 °C 20.6 °C 1013.8 hPa Calm     93% 0 mm WeatherDisplay:10.37 W/m2 BKN
03:30 21.8 °C 20.6 °C 1013.4 hPa Calm     93% 0 mm WeatherDisplay:10.37 W/m2 BKN
03:40 21.8 °C 20.6 °C 1013.8 hPa Calm     93% 0 mm WeatherDisplay:10.37 W/m2 BKN
03:50 21.8 °C 20.6 °C 1013.8 hPa Calm     93% 0 mm WeatherDisplay:10.37 W/m2 BKN
04:00 21.8 °C 20.6 °C 1013.8 hPa Calm     93% 0 mm WeatherDisplay:10.37 W/m2 BKN
04:20 21.8 °C 20.6 °C 1013.8 hPa Calm     93% 0 mm WeatherDisplay:10.37 W/m2 OVC
04:30 21.8 °C 20.6 °C 1013.8 hPa Calm     93% 0 mm WeatherDisplay:10.37 W/m2 OVC
04:40 21.8 °C 20.6 °C 1013.8 hPa Calm     93% 0 mm WeatherDisplay:10.37 W/m2 OVC
04:50 21.8 °C 20.6 °C 1013.8 hPa Calm     93% 0 mm WeatherDisplay:10.37 W/m2 OVC
05:00 21.8 °C 20.6 °C 1013.8 hPa Calm     93% 0 mm WeatherDisplay:10.37 W/m2 OVC
05:10 21.8 °C 20.6 °C 1014.1 hPa Calm     93% 0 mm WeatherDisplay:10.37 W/m2 OVC
05:20 21.8 °C 20.6 °C 1014.1 hPa Calm     93% 0 mm WeatherDisplay:10.37 W/m2 OVC
05:30 21.8 °C 20.6 °C 1014.1 hPa Calm     93% 0 mm WeatherDisplay:10.37 W/m2 OVC
05:40 21.8 °C 20.6 °C 1014.1 hPa Calm     93% 0 mm WeatherDisplay:10.37 W/m2 OVC
05:50 21.8 °C 20.6 °C 1014.1 hPa Calm     93% 0 mm WeatherDisplay:10.37 W/m2 OVC
06:00 21.8 °C 20.6 °C 1014.1 hPa Calm     93% 0 mm WeatherDisplay:10.37 W/m2 -RA
06:10 21.8 °C 20.6 °C 1014.4 hPa Calm     93% 0 mm WeatherDisplay:10.37 W/m2 -RA
06:20 21.8 °C 20.6 °C 1014.4 hPa Calm     93% 0 mm WeatherDisplay:10.37 W/m2 -RA
06:30 21.8 °C 20.6 °C 1014.4 hPa Calm     93% 0 mm WeatherDisplay:10.37 W/m2 -RA
06:40 21.8 °C 20.6 °C 1014.4 hPa Calm     93% 0 mm WeatherDisplay:10.37 W/m2 -RA
06:50 21.8 °C 20.6 °C 1014.4 hPa Calm     93% 0 mm WeatherDisplay:10.37 W/m2 OVC
07:00 21.8 °C 20.6 °C 1014.8 hPa Calm     93% 0 mm WeatherDisplay:10.37 W/m2 OVC
07:10 21.8 °C 20.6 °C 1014.8 hPa Calm     93% 0 mm WeatherDisplay:10.37 W/m2 OVC
07:20 21.8 °C 20.6 °C 1014.8 hPa Calm     93% 0 mm WeatherDisplay:10.37 W/m2 -DZ
07:30 21.8 °C 20.6 °C 1014.8 hPa Calm     93% 0 mm WeatherDisplay:10.37 W/m2 -DZ
07:40 21.8 °C 20.6 °C 1015.1 hPa Calm     93% 0 mm WeatherDisplay:10.37 W/m2 -DZ
07:50 21.8 °C 20.6 °C 1015.1 hPa Calm     93% 0 mm WeatherDisplay:10.37 W/m2 OVC
08:00 21.8 °C 20.6 °C 1015.1 hPa Calm     93% 0 mm WeatherDisplay:10.37 W/m2 OVC
08:10 21.8 °C 20.6 °C 1015.5 hPa Calm     93% 0 mm WeatherDisplay:10.37 W/m2 OVC
08:20 21.8 °C 20.6 °C 1015.5 hPa Calm     93% 0 mm WeatherDisplay:10.37 W/m2 OVC
08:30 21.8 °C 20.6 °C 1015.5 hPa Calm     93% 0 mm WeatherDisplay:10.37 W/m2 -RA
08:40 21.8 °C 20.6 °C 1015.8 hPa Calm     93% 0 mm WeatherDisplay:10.37 W/m2 -RA
08:50 21.8 °C 20.6 °C 1015.8 hPa Calm     93% 0 mm WeatherDisplay:10.37 W/m2 OVC
09:00 21.8 °C 20.6 °C 1015.8 hPa Calm     93% 0 mm WeatherDisplay:10.37 W/m2 OVC
09:10 21.8 °C 20.6 °C 1015.8 hPa Calm     93% 0 mm WeatherDisplay:10.37 W/m2 OVC
09:20 21.8 °C 20.6 °C 1015.8 hPa Calm     93% 0 mm WeatherDisplay:10.37 W/m2 OVC
09:30 21.8 °C 20.6 °C 1015.8 hPa Calm     93% 0 mm WeatherDisplay:10.37 W/m2 OVC
09:40 21.8 °C 20.6 °C 1015.8 hPa Calm     93% 0 mm WeatherDisplay:10.37 W/m2 OVC
09:50 21.8 °C 20.6 °C 1015.5 hPa Calm     93% 0 mm WeatherDisplay:10.37 W/m2 OVC
10:00 21.8 °C 20.6 °C 1015.5 hPa Calm     93% 0 mm WeatherDisplay:10.37 W/m2 OVC
10:10 21.8 °C 20.6 °C 1015.5 hPa Calm     93% 0 mm WeatherDisplay:10.37 W/m2 OVC
10:20 21.8 °C 20.6 °C 1015.5 hPa Calm     93% 0 mm WeatherDisplay:10.37 W/m2 OVC
10:30 21.8 °C 20.6 °C 1015.8 hPa Calm     93% 0 mm WeatherDisplay:10.37 W/m2 OVC
10:40 21.8 °C 20.6 °C 1015.8 hPa Calm     93% 0 mm WeatherDisplay:10.37 W/m2 OVC
11:10 21.8 °C 20.6 °C 1015.8 hPa Calm     93% 0 mm WeatherDisplay:10.37 W/m2 OVC
11:20 21.8 °C 20.6 °C 1016.1 hPa Calm   1.6 km/h 93% 0 mm WeatherDisplay:10.37 W/m2 OVC
11:30 21.8 °C 20.6 °C 1016.1 hPa Calm     93% 0 mm WeatherDisplay:10.37 W/m2 OVC
11:40 21.8 °C 20.6 °C 1016.5 hPa Calm     93% 0 mm WeatherDisplay:10.37 W/m2 OVC
11:50 21.8 °C 20.6 °C 1016.1 hPa Calm     93% 0 mm WeatherDisplay:10.37 W/m2 OVC
12:00 21.8 °C 20.6 °C 1016.1 hPa Calm     93% 0 mm WeatherDisplay:10.37 W/m2 OVC
12:10 23.6 °C 22.6 °C 1016.1 hPa Calm   1.6 km/h 94% 0 mm WeatherDisplay:10.37 W/m2 OVC
12:20 23.8 °C 22.8 °C 1016.1 hPa Calm   1.6 km/h 94% 0 mm WeatherDisplay:10.37 W/m2 OVC
12:30 23.9 °C 22.9 °C 1016.1 hPa Calm     94% 0 mm WeatherDisplay:10.37 W/m2 OVC
12:40 24 °C 23 °C 1016.1 hPa Calm   1.6 km/h 94% 0 mm WeatherDisplay:10.37 W/m2 OVC
12:50 24.3 °C 23.3 °C 1016.1 hPa Calm   6.4 km/h 94% 0 mm WeatherDisplay:10.37 W/m2 OVC
13:00 24.7 °C 23.4 °C 1015.8 hPa Calm   4.8 km/h 93% 0 mm WeatherDisplay:10.37 W/m2 OVC
13:10 24.9 °C 23.4 °C 1015.8 hPa Calm   1.6 km/h 91% 0.25 mm WeatherDisplay:10.37 W/m2 OVC
13:20 25.2 °C 23.4 °C 1015.8 hPa Calm     90% 0 mm WeatherDisplay:10.37 W/m2 OVC
13:30 25.1 °C 23.4 °C 1015.8 hPa Calm   1.6 km/h 90% 0 mm WeatherDisplay:10.37 W/m2 OVC
13:40 25.1 °C 23.3 °C 1015.8 hPa Calm     90% 0 mm WeatherDisplay:10.37 W/m2 OVC
13:50 25 °C 23.4 °C 1015.8 hPa Calm     91% 0 mm WeatherDisplay:10.37 W/m2 OVC
14:00 25.1 °C 23.5 °C 1015.8 hPa Calm     91% 0 mm WeatherDisplay:10.37 W/m2 OVC
14:10 25.3 °C 23.6 °C 1015.8 hPa Calm   1.6 km/h 90% 0 mm WeatherDisplay:10.37 W/m2 OVC
14:20 25.7 °C 23.7 °C 1015.5 hPa Calm   1.6 km/h 89% 0 mm WeatherDisplay:10.37 W/m2 BKN
14:30 26.1 °C 23.3 °C 1015.5 hPa Calm   3.2 km/h 85% 0 mm WeatherDisplay:10.37 W/m2 BKN
14:40 26.3 °C 23.4 °C 1015.5 hPa Calm   1.6 km/h 84% 0 mm WeatherDisplay:10.37 W/m2 BKN
14:50 26.6 °C 23.6 °C 1015.5 hPa Calm   1.6 km/h 84% 0 mm WeatherDisplay:10.37 W/m2 BKN
15:00 26.6 °C 23.7 °C 1015.5 hPa Calm   1.6 km/h 84% 0.25 mm WeatherDisplay:10.37 W/m2 BKN
15:10 26.8 °C 23.3 °C 1015.5 hPa Calm   3.2 km/h 81% 0 mm WeatherDisplay:10.37 W/m2 BKN
15:20 27.1 °C 23.2 °C 1015.5 hPa Calm   3.2 km/h 79% 0 mm WeatherDisplay:10.37 W/m2 BKN
15:30 27.2 °C 24 °C 1015.5 hPa Calm   1.6 km/h 83% 0 mm WeatherDisplay:10.37 W/m2 BKN
15:40 27.1 °C 23.3 °C 1015.1 hPa Calm   3.2 km/h 80% 0 mm WeatherDisplay:10.37 W/m2 BKN
15:50 27.2 °C 23.4 °C 1015.1 hPa Calm   3.2 km/h 80% 0 mm WeatherDisplay:10.37 W/m2 BKN
16:00 27.2 °C 23.4 °C 1015.1 hPa Calm   1.6 km/h 80% 0 mm WeatherDisplay:10.37 W/m2 BKN
16:10 27.5 °C 23.3 °C 1015.1 hPa Calm   3.2 km/h 78% 0 mm WeatherDisplay:10.37 W/m2 BKN
16:20 27.4 °C 23.3 °C 1015.1 hPa Calm   1.6 km/h 78% 0 mm WeatherDisplay:10.37 W/m2 BKN
16:30 27.6 °C 23.4 °C 1015.1 hPa Calm   9.7 km/h 78% 0 mm WeatherDisplay:10.37 W/m2 BKN
16:40 27.6 °C 23.7 °C 1014.8 hPa Calm   1.6 km/h 79% 0 mm WeatherDisplay:10.37 W/m2 BKN
16:50 27.7 °C 23.1 °C 1014.8 hPa Calm   3.2 km/h 76% 0 mm WeatherDisplay:10.37 W/m2 BKN
17:00 27.7 °C 23.7 °C 1014.8 hPa Calm   3.2 km/h 79% 0.25 mm WeatherDisplay:10.37 W/m2 BKN
17:10 27.9 °C 23.5 °C 1014.8 hPa Calm   1.6 km/h 77% 0 mm WeatherDisplay:10.37 W/m2 BKN
17:20 28.1 °C 23.7 °C 1014.8 hPa Calm   1.6 km/h 77% 0 mm WeatherDisplay:10.37 W/m2 BKN
17:30 27.9 °C 23.5 °C 1014.4 hPa Calm   3.2 km/h 77% 0 mm WeatherDisplay:10.37 W/m2 BKN
17:40 27.9 °C 23.3 °C 1014.4 hPa Calm   1.6 km/h 76% 0 mm WeatherDisplay:10.37 W/m2 BKN
17:50 27.8 °C 23.2 °C 1014.8 hPa Calm   3.2 km/h 76% 0 mm WeatherDisplay:10.37 W/m2 BKN
18:00 27.6 °C 22.7 °C 1014.4 hPa Calm   1.6 km/h 75% 0 mm WeatherDisplay:10.37 W/m2 BKN
18:10 27.5 °C 23.1 °C 1014.8 hPa Calm     77% 0 mm WeatherDisplay:10.37 W/m2 BKN
18:20 27.4 °C 22.8 °C 1014.8 hPa Calm   1.6 km/h 76% 0 mm WeatherDisplay:10.37 W/m2 BKN
18:30 27.3 °C 23.2 °C 1014.8 hPa Calm   1.6 km/h 78% 0.25 mm WeatherDisplay:10.37 W/m2 RA
18:40 27.1 °C 23.2 °C 1014.4 hPa Calm     79% 0 mm WeatherDisplay:10.37 W/m2 BKN
18:50 26.8 °C 22.7 °C 1014.4 hPa Calm     78% 0 mm WeatherDisplay:10.37 W/m2 BKN
19:00 26.7 °C 23.2 °C 1014.8 hPa Calm   1.6 km/h 81% 0 mm WeatherDisplay:10.37 W/m2 BKN
19:10 26.4 °C 22.7 °C 1014.8 hPa Calm   1.6 km/h 80% 0 mm WeatherDisplay:10.37 W/m2 BKN
19:20 26.3 °C 22.9 °C 1014.8 hPa Calm     82% 0 mm WeatherDisplay:10.37 W/m2 BKN
19:30 26.1 °C 23.2 °C 1015.5 hPa Calm     84% 0 mm WeatherDisplay:10.37 W/m2 BKN
19:40 25.8 °C 23.1 °C 1015.5 hPa Calm     85% 0 mm WeatherDisplay:10.37 W/m2 BKN
19:50 25.6 °C 23.1 °C 1015.8 hPa Calm     86% 0 mm WeatherDisplay:10.37 W/m2 BKN
20:00 25.5 °C 23 °C 1015.5 hPa Calm     86% 0 mm WeatherDisplay:10.37 W/m2 BKN
20:10 25.3 °C 23 °C 1015.8 hPa Calm     87% 0 mm WeatherDisplay:10.37 W/m2 BKN
20:20 24.7 °C 22.2 °C 1015.8 hPa Calm     86% 0 mm WeatherDisplay:10.37 W/m2 BKN
20:30 25.2 °C 22.7 °C 1016.1 hPa Calm     86% 0 mm WeatherDisplay:10.37 W/m2 BKN
20:40 25.2 °C 22.7 °C 1016.5 hPa Calm     86% 0 mm WeatherDisplay:10.37 W/m2 BKN
21:00 25.2 °C 22.7 °C 1016.5 hPa Calm     86% 0 mm WeatherDisplay:10.37 W/m2 BKN
21:10 25.2 °C 22.7 °C 1017.2 hPa Calm     86% 0 mm WeatherDisplay:10.37 W/m2 BKN
21:20 25.2 °C 22.7 °C 1017.5 hPa Calm     86% 0 mm WeatherDisplay:10.37 W/m2 OVC
21:30 25.2 °C 22.7 °C 1017.8 hPa Calm     86% 0 mm WeatherDisplay:10.37 W/m2 OVC
21:40 25.2 °C 22.7 °C 1017.8 hPa Calm     86% 0 mm WeatherDisplay:10.37 W/m2 OVC
21:50 25.2 °C 22.7 °C 1017.8 hPa Calm     86% 0 mm WeatherDisplay:10.37 W/m2 OVC
22:00 25.2 °C 22.7 °C 1017.5 hPa Calm     86% 0 mm WeatherDisplay:10.37 W/m2 OVC
22:10 25.2 °C 22.7 °C 1017.5 hPa Calm     86% 0 mm WeatherDisplay:10.37 W/m2 OVC
22:20 25.2 °C 22.7 °C 1017.8 hPa Calm     86% 0 mm WeatherDisplay:10.37 W/m2 OVC
22:30 25.2 °C 22.7 °C 1017.8 hPa Calm     86% 0 mm WeatherDisplay:10.37 W/m2 OVC
22:40 25.2 °C 22.7 °C 1017.8 hPa Calm     86% 0 mm WeatherDisplay:10.37 W/m2 OVC
22:50 25.2 °C 22.7 °C 1017.8 hPa Calm     86% 0 mm WeatherDisplay:10.37 W/m2 OVC
23:00 25.2 °C 22.7 °C 1017.8 hPa Calm     86% 0 mm WeatherDisplay:10.37 W/m2 OVC
23:10 25.2 °C 22.7 °C 1018.2 hPa Calm     86% 0 mm WeatherDisplay:10.37 W/m2 OVC
23:20 25.2 °C 22.7 °C 1018.5 hPa Calm     86% 0 mm WeatherDisplay:10.37 W/m2 OVC
23:30 25.2 °C 22.7 °C 1018.5 hPa Calm     86% 0 mm WeatherDisplay:10.37 W/m2 BKN
23:40 25.2 °C 22.7 °C 1018.5 hPa Calm     86% 0 mm WeatherDisplay:10.37 W/m2 BKN
23:50 25.2 °C 22.7 °C 1018.5 hPa Calm     86% 0 mm WeatherDisplay:10.37 W/m2 BKN
Piedmont Bend
Compliments of Weather Underground - 4 mb